sensor_id;sensor_type;location;lat;lon;timestamp;pressure;altitude;pressure_sealevel;temperature;humidity
11676;BME280;5894;42.768;23.404;2023-05-29T00:00:03;95419.47;;;15.79;100.00
11676;BME280;5894;42.768;23.404;2023-05-29T00:02:35;95423.16;;;15.74;100.00
11676;BME280;5894;42.768;23.404;2023-05-29T00:05:03;95424.28;;;15.73;100.00
11676;BME280;5894;42.768;23.404;2023-05-29T00:07:32;95429.72;;;15.77;100.00
11676;BME280;5894;42.768;23.404;2023-05-29T00:09:59;95440.53;;;15.84;100.00
11676;BME280;5894;42.768;23.404;2023-05-29T00:12:26;95430.22;;;15.83;100.00
11676;BME280;5894;42.768;23.404;2023-05-29T00:14:54;95431.16;;;15.74;100.00
11676;BME280;5894;42.768;23.404;2023-05-29T00:17:21;95426.28;;;15.76;100.00
11676;BME280;5894;42.768;23.404;2023-05-29T00:19:48;95431.47;;;15.73;100.00
11676;BME280;5894;42.768;23.404;2023-05-29T00:22:15;95427.72;;;15.74;100.00
11676;BME280;5894;42.768;23.404;2023-05-29T00:24:43;95421.75;;;15.65;100.00
11676;BME280;5894;42.768;23.404;2023-05-29T00:27:11;95420.31;;;15.67;100.00
11676;BME280;5894;42.768;23.404;2023-05-29T00:29:39;95416.31;;;15.73;100.00
11676;BME280;5894;42.768;23.404;2023-05-29T00:32:06;95312.50;;;15.02;100.00
11676;BME280;5894;42.768;23.404;2023-05-29T00:34:33;95415.09;;;15.71;100.00
11676;BME280;5894;42.768;23.404;2023-05-29T00:37:01;95413.97;;;15.72;100.00
11676;BME280;5894;42.768;23.404;2023-05-29T00:39:28;95413.97;;;15.72;100.00
11676;BME280;5894;42.768;23.404;2023-05-29T00:41:57;95408.91;;;15.67;100.00
11676;BME280;5894;42.768;23.404;2023-05-29T00:44:24;95413.44;;;15.66;100.00
11676;BME280;5894;42.768;23.404;2023-05-29T00:46:52;95419.53;;;15.67;100.00
11676;BME280;5894;42.768;23.404;2023-05-29T00:49:21;95421.75;;;15.65;100.00
11676;BME280;5894;42.768;23.404;2023-05-29T00:51:50;95425.19;;;15.65;100.00
11676;BME280;5894;42.768;23.404;2023-05-29T00:54:21;95417.56;;;15.64;100.00
11676;BME280;5894;42.768;23.404;2023-05-29T00:56:50;95415.34;;;15.66;100.00
11676;BME280;5894;42.768;23.404;2023-05-29T00:59:19;95419.75;;;15.62;100.00
11676;BME280;5894;42.768;23.404;2023-05-29T01:01:48;95418.31;;;15.64;100.00
11676;BME280;5894;42.768;23.404;2023-05-29T01:04:16;95416.44;;;15.65;100.00
11676;BME280;5894;42.768;23.404;2023-05-29T01:06:43;95416.88;;;15.67;100.00
11676;BME280;5894;42.768;23.404;2023-05-29T01:09:11;95398.81;;;15.48;100.00
11676;BME280;5894;42.768;23.404;2023-05-29T01:11:46;95411.56;;;15.67;100.00
11676;BME280;5894;42.768;23.404;2023-05-29T01:14:23;95404.06;;;15.57;100.00
11676;BME280;5894;42.768;23.404;2023-05-29T01:17:04;95420.97;;;15.52;100.00
11676;BME280;5894;42.768;23.404;2023-05-29T01:19:54;95432.53;;;15.56;100.00
11676;BME280;5894;42.768;23.404;2023-05-29T01:22:35;95416.56;;;15.56;100.00
11676;BME280;5894;42.768;23.404;2023-05-29T01:25:11;95418.66;;;15.51;100.00
11676;BME280;5894;42.768;23.404;2023-05-29T01:27:46;95415.53;;;15.49;100.00
11676;BME280;5894;42.768;23.404;2023-05-29T01:30:15;95406.72;;;15.45;100.00
11676;BME280;5894;42.768;23.404;2023-05-29T01:32:42;95406.28;;;15.42;100.00
11676;BME280;5894;42.768;23.404;2023-05-29T01:35:13;95409.50;;;15.36;100.00
11676;BME280;5894;42.768;23.404;2023-05-29T01:37:41;95408.06;;;15.26;100.00
11676;BME280;5894;42.768;23.404;2023-05-29T01:40:08;95402.41;;;15.28;100.00
11676;BME280;5894;42.768;23.404;2023-05-29T01:42:36;95407.63;;;15.24;100.00
11676;BME280;5894;42.768;23.404;2023-05-29T01:45:05;95399.41;;;15.29;100.00
11676;BME280;5894;42.768;23.404;2023-05-29T01:47:33;95405.75;;;15.25;100.00
11676;BME280;5894;42.768;23.404;2023-05-29T01:50:00;95403.44;;;15.23;100.00
11676;BME280;5894;42.768;23.404;2023-05-29T01:52:28;95398.19;;;15.27;100.00
11676;BME280;5894;42.768;23.404;2023-05-29T01:54:55;95395.22;;;15.28;100.00
11676;BME280;5894;42.768;23.404;2023-05-29T01:57:23;95397.44;;;15.26;100.00
11676;BME280;5894;42.768;23.404;2023-05-29T01:59:50;95403.44;;;15.23;100.00
11676;BME280;5894;42.768;23.404;2023-05-29T02:02:21;95396.88;;;15.21;100.00
11676;BME280;5894;42.768;23.404;2023-05-29T02:04:49;95397.66;;;15.21;100.00
11676;BME280;5894;42.768;23.404;2023-05-29T02:07:17;95360.28;;;15.02;100.00
11676;BME280;5894;42.768;23.404;2023-05-29T02:09:45;95405.84;;;15.28;100.00
11676;BME280;5894;42.768;23.404;2023-05-29T02:12:12;95398.44;;;15.22;100.00
11676;BME280;5894;42.768;23.404;2023-05-29T02:14:39;95394.34;;;15.12;100.00
11676;BME280;5894;42.768;23.404;2023-05-29T02:17:07;95405.09;;;15.16;100.00
11676;BME280;5894;42.768;23.404;2023-05-29T02:19:36;95403.44;;;15.11;100.00
11676;BME280;5894;42.768;23.404;2023-05-29T02:22:03;95394.47;;;15.03;100.00
11676;BME280;5894;42.768;23.404;2023-05-29T02:24:31;95404.97;;;15.00;100.00
11676;BME280;5894;42.768;23.404;2023-05-29T02:26:59;95413.72;;;15.13;100.00
11676;BME280;5894;42.768;23.404;2023-05-29T02:29:26;95402.53;;;15.07;100.00
11676;BME280;5894;42.768;23.404;2023-05-29T02:31:54;95410.84;;;15.05;100.00
11676;BME280;5894;42.768;23.404;2023-05-29T02:34:21;95405.53;;;15.05;100.00
11676;BME280;5894;42.768;23.404;2023-05-29T02:36:50;95414.19;;;15.15;100.00
11676;BME280;5894;42.768;23.404;2023-05-29T02:39:18;95413.84;;;15.04;100.00
11676;BME280;5894;42.768;23.404;2023-05-29T02:41:45;95412.84;;;15.09;100.00
11676;BME280;5894;42.768;23.404;2023-05-29T02:44:12;95408.41;;;15.00;100.00
11676;BME280;5894;42.768;23.404;2023-05-29T02:46:40;95405.88;;;15.04;100.00
11676;BME280;5894;42.768;23.404;2023-05-29T02:49:08;95405.44;;;15.02;100.00
11676;BME280;5894;42.768;23.404;2023-05-29T02:51:34;95401.34;;;15.04;100.00
11676;BME280;5894;42.768;23.404;2023-05-29T02:54:04;95395.25;;;15.04;100.00
11676;BME280;5894;42.768;23.404;2023-05-29T02:56:31;95394.81;;;15.02;100.00
11676;BME280;5894;42.768;23.404;2023-05-29T02:58:58;95390.28;;;15.02;100.00
11676;BME280;5894;42.768;23.404;2023-05-29T03:01:25;95392.03;;;14.98;100.00
11676;BME280;5894;42.768;23.404;2023-05-29T03:03:54;95394.25;;;15.09;100.00
11676;BME280;5894;42.768;23.404;2023-05-29T03:06:22;95401.75;;;15.06;100.00
11676;BME280;5894;42.768;23.404;2023-05-29T03:08:49;95401.09;;;15.10;100.00
11676;BME280;5894;42.768;23.404;2023-05-29T03:11:18;95405.09;;;15.03;100.00
11676;BME280;5894;42.768;23.404;2023-05-29T03:13:46;95400.91;;;15.02;100.00
11676;BME280;5894;42.768;23.404;2023-05-29T03:16:15;95410.50;;;15.07;100.00
11676;BME280;5894;42.768;23.404;2023-05-29T03:18:44;95420.59;;;15.01;100.00
11676;BME280;5894;42.768;23.404;2023-05-29T03:21:12;95417.59;;;15.03;100.00
11676;BME280;5894;42.768;23.404;2023-05-29T03:23:39;95428.13;;;15.12;100.00
11676;BME280;5894;42.768;23.404;2023-05-29T03:26:06;95426.88;;;15.09;100.00
11676;BME280;5894;42.768;23.404;2023-05-29T03:28:36;95438.28;;;15.10;100.00
11676;BME280;5894;42.768;23.404;2023-05-29T03:31:05;95429.34;;;15.02;100.00
11676;BME280;5894;42.768;23.404;2023-05-29T03:33:34;95437.06;;;15.07;100.00
11676;BME280;5894;42.768;23.404;2023-05-29T03:36:24;95439.63;;;15.03;100.00
11676;BME280;5894;42.768;23.404;2023-05-29T03:38:52;95444.69;;;14.96;100.00
11676;BME280;5894;42.768;23.404;2023-05-29T03:41:19;95445.28;;;15.02;100.00
11676;BME280;5894;42.768;23.404;2023-05-29T03:43:48;95443.06;;;15.04;100.00
11676;BME280;5894;42.768;23.404;2023-05-29T03:46:15;95449.94;;;15.05;100.00
11676;BME280;5894;42.768;23.404;2023-05-29T03:48:42;95458.44;;;15.11;100.00
11676;BME280;5894;42.768;23.404;2023-05-29T03:51:10;95452.91;;;15.16;100.00
11676;BME280;5894;42.768;23.404;2023-05-29T03:53:37;95456.00;;;15.18;100.00
11676;BME280;5894;42.768;23.404;2023-05-29T03:56:04;95454.66;;;15.12;100.00
11676;BME280;5894;42.768;23.404;2023-05-29T03:58:33;95421.16;;;14.95;100.00
11676;BME280;5894;42.768;23.404;2023-05-29T04:01:03;95420.81;;;14.84;100.00
11676;BME280;5894;42.768;23.404;2023-05-29T04:03:31;95470.81;;;15.19;100.00
11676;BME280;5894;42.768;23.404;2023-05-29T04:05:58;95475.69;;;15.17;100.00
11676;BME280;5894;42.768;23.404;2023-05-29T04:08:25;95469.84;;;15.23;100.00
11676;BME280;5894;42.768;23.404;2023-05-29T04:10:52;95482.22;;;15.19;100.00
11676;BME280;5894;42.768;23.404;2023-05-29T04:13:21;95434.66;;;15.02;100.00
11676;BME280;5894;42.768;23.404;2023-05-29T04:15:48;95470.94;;;15.22;100.00
11676;BME280;5894;42.768;23.404;2023-05-29T04:18:19;95472.81;;;15.22;100.00
11676;BME280;5894;42.768;23.404;2023-05-29T04:20:47;95477.91;;;15.27;100.00
11676;BME280;5894;42.768;23.404;2023-05-29T04:23:14;95477.81;;;15.23;100.00
11676;BME280;5894;42.768;23.404;2023-05-29T04:25:42;95480.34;;;15.20;100.00
11676;BME280;5894;42.768;23.404;2023-05-29T04:28:12;95477.47;;;15.25;100.00
11676;BME280;5894;42.768;23.404;2023-05-29T04:30:39;95484.44;;;15.29;100.00
11676;BME280;5894;42.768;23.404;2023-05-29T04:33:07;95481.44;;;15.31;100.00
11676;BME280;5894;42.768;23.404;2023-05-29T04:35:37;95478.47;;;15.32;100.00
11676;BME280;5894;42.768;23.404;2023-05-29T04:38:07;95478.22;;;15.37;100.00
11676;BME280;5894;42.768;23.404;2023-05-29T04:40:35;95470.16;;;15.22;100.00
11676;BME280;5894;42.768;23.404;2023-05-29T04:43:04;95475.38;;;15.30;100.00
11676;BME280;5894;42.768;23.404;2023-05-29T04:45:47;95478.13;;;15.34;100.00
11676;BME280;5894;42.768;23.404;2023-05-29T04:48:14;95482.75;;;15.37;100.00
11676;BME280;5894;42.768;23.404;2023-05-29T04:50:44;95470.38;;;15.41;100.00
11676;BME280;5894;42.768;23.404;2023-05-29T04:53:11;95483.34;;;15.42;100.00
11676;BME280;5894;42.768;23.404;2023-05-29T04:55:39;95483.00;;;15.44;100.00
11676;BME280;5894;42.768;23.404;2023-05-29T04:58:06;95495.28;;;15.49;100.00
11676;BME280;5894;42.768;23.404;2023-05-29T05:00:35;95489.63;;;15.50;100.00
11676;BME280;5894;42.768;23.404;2023-05-29T05:03:03;95506.69;;;15.49;100.00
11676;BME280;5894;42.768;23.404;2023-05-29T05:05:32;95502.81;;;15.59;100.00
11676;BME280;5894;42.768;23.404;2023-05-29T05:08:02;95503.38;;;15.64;100.00
11676;BME280;5894;42.768;23.404;2023-05-29T05:10:29;95504.94;;;15.65;100.00
11676;BME280;5894;42.768;23.404;2023-05-29T05:12:57;95507.81;;;15.72;100.00
11676;BME280;5894;42.768;23.404;2023-05-29T05:15:25;95509.81;;;15.75;100.00
11676;BME280;5894;42.768;23.404;2023-05-29T05:17:53;95519.41;;;15.80;100.00
11676;BME280;5894;42.768;23.404;2023-05-29T05:20:20;95517.19;;;15.82;100.00
11676;BME280;5894;42.768;23.404;2023-05-29T05:22:53;95515.31;;;15.83;100.00
11676;BME280;5894;42.768;23.404;2023-05-29T05:25:23;95531.38;;;15.86;100.00
11676;BME280;5894;42.768;23.404;2023-05-29T05:27:50;95528.03;;;15.89;100.00
11676;BME280;5894;42.768;23.404;2023-05-29T05:30:19;95530.69;;;15.89;100.00
11676;BME280;5894;42.768;23.404;2023-05-29T05:32:46;95532.25;;;15.90;100.00
11676;BME280;5894;42.768;23.404;2023-05-29T05:35:13;95526.06;;;15.86;100.00
11676;BME280;5894;42.768;23.404;2023-05-29T05:37:41;95521.19;;;15.88;100.00
11676;BME280;5894;42.768;23.404;2023-05-29T05:40:08;95518.53;;;15.88;100.00
11676;BME280;5894;42.768;23.404;2023-05-29T05:42:47;95514.06;;;15.92;100.00
11676;BME280;5894;42.768;23.404;2023-05-29T05:45:14;95518.59;;;16.04;100.00
11676;BME280;5894;42.768;23.404;2023-05-29T05:47:42;95514.16;;;16.08;100.00
11676;BME280;5894;42.768;23.404;2023-05-29T05:50:10;95515.16;;;16.03;100.00
11676;BME280;5894;42.768;23.404;2023-05-29T05:52:37;95499.19;;;16.03;100.00
11676;BME280;5894;42.768;23.404;2023-05-29T05:55:06;95509.47;;;16.17;100.00
11676;BME280;5894;42.768;23.404;2023-05-29T05:57:33;95509.22;;;16.22;100.00
11676;BME280;5894;42.768;23.404;2023-05-29T06:00:04;95493.41;;;16.13;100.00
11676;BME280;5894;42.768;23.404;2023-05-29T06:02:42;95520.91;;;16.45;100.00
11676;BME280;5894;42.768;23.404;2023-05-29T06:05:14;95518.84;;;16.55;100.00
11676;BME280;5894;42.768;23.404;2023-05-29T06:07:42;95516.84;;;16.64;100.00
11676;BME280;5894;42.768;23.404;2023-05-29T06:10:09;95513.19;;;16.68;100.00
11676;BME280;5894;42.768;23.404;2023-05-29T06:12:36;95515.69;;;16.77;100.00
11676;BME280;5894;42.768;23.404;2023-05-29T06:15:17;95518.06;;;16.82;100.00
11676;BME280;5894;42.768;23.404;2023-05-29T06:17:45;95523.00;;;16.96;100.00
11676;BME280;5894;42.768;23.404;2023-05-29T06:20:14;95519.75;;;17.02;100.00
11676;BME280;5894;42.768;23.404;2023-05-29T06:22:41;95522.44;;;17.02;100.00
11676;BME280;5894;42.768;23.404;2023-05-29T06:25:09;95517.94;;;17.06;100.00
11676;BME280;5894;42.768;23.404;2023-05-29T06:27:36;95526.72;;;17.07;100.00
11676;BME280;5894;42.768;23.404;2023-05-29T06:30:04;95521.81;;;17.24;100.00
11676;BME280;5894;42.768;23.404;2023-05-29T06:32:32;95517.31;;;17.44;100.00
11676;BME280;5894;42.768;23.404;2023-05-29T06:35:00;95525.75;;;17.62;100.00
11676;BME280;5894;42.768;23.404;2023-05-29T06:37:28;95516.03;;;17.85;100.00
11676;BME280;5894;42.768;23.404;2023-05-29T06:39:56;95519.19;;;18.10;100.00
11676;BME280;5894;42.768;23.404;2023-05-29T06:42:24;95535.00;;;18.38;100.00
11676;BME280;5894;42.768;23.404;2023-05-29T06:44:57;95485.00;;;18.35;100.00
11676;BME280;5894;42.768;23.404;2023-05-29T06:47:24;95525.91;;;18.78;100.00
11676;BME280;5894;42.768;23.404;2023-05-29T06:49:53;95536.13;;;18.95;100.00
11676;BME280;5894;42.768;23.404;2023-05-29T06:52:20;95534.47;;;19.10;100.00
11676;BME280;5894;42.768;23.404;2023-05-29T06:55:06;95524.84;;;19.28;100.00
11676;BME280;5894;42.768;23.404;2023-05-29T06:57:34;95530.25;;;19.54;100.00
11676;BME280;5894;42.768;23.404;2023-05-29T07:00:01;95537.03;;;19.71;100.00
11676;BME280;5894;42.768;23.404;2023-05-29T07:02:29;95537.22;;;19.85;100.00
11676;BME280;5894;42.768;23.404;2023-05-29T07:04:58;95526.97;;;19.91;100.00
11676;BME280;5894;42.768;23.404;2023-05-29T07:07:26;95540.59;;;20.08;100.00
11676;BME280;5894;42.768;23.404;2023-05-29T07:09:54;95542.34;;;20.24;100.00
11676;BME280;5894;42.768;23.404;2023-05-29T07:12:22;95542.59;;;20.41;100.00
11676;BME280;5894;42.768;23.404;2023-05-29T07:14:49;95533.84;;;20.48;100.00
11676;BME280;5894;42.768;23.404;2023-05-29T07:17:16;95542.78;;;20.59;100.00
11676;BME280;5894;42.768;23.404;2023-05-29T07:19:43;95537.13;;;20.64;100.00
11676;BME280;5894;42.768;23.404;2023-05-29T07:22:11;95551.34;;;20.72;100.00
11676;BME280;5894;42.768;23.404;2023-05-29T07:24:39;95540.69;;;20.75;100.00
11676;BME280;5894;42.768;23.404;2023-05-29T07:27:06;95545.09;;;20.94;100.00
11676;BME280;5894;42.768;23.404;2023-05-29T07:29:34;95545.81;;;20.91;100.00
11676;BME280;5894;42.768;23.404;2023-05-29T07:32:01;95550.00;;;20.88;100.00
11676;BME280;5894;42.768;23.404;2023-05-29T07:34:30;95551.53;;;20.89;100.00
11676;BME280;5894;42.768;23.404;2023-05-29T07:37:00;95552.25;;;20.83;100.00
11676;BME280;5894;42.768;23.404;2023-05-29T07:39:30;95538.78;;;20.79;100.00
11676;BME280;5894;42.768;23.404;2023-05-29T07:42:01;95532.59;;;20.72;100.00
11676;BME280;5894;42.768;23.404;2023-05-29T07:44:28;95546.06;;;20.79;100.00
11676;BME280;5894;42.768;23.404;2023-05-29T07:46:55;95547.59;;;20.80;100.00
11676;BME280;5894;42.768;23.404;2023-05-29T07:49:39;95550.44;;;20.94;100.00
11676;BME280;5894;42.768;23.404;2023-05-29T07:52:07;95547.13;;;21.08;100.00
11676;BME280;5894;42.768;23.404;2023-05-29T07:54:36;95548.28;;;21.07;100.00
11676;BME280;5894;42.768;23.404;2023-05-29T07:57:05;95545.53;;;21.00;98.81
11676;BME280;5894;42.768;23.404;2023-05-29T07:59:37;95542.94;;;21.07;100.00
11676;BME280;5894;42.768;23.404;2023-05-29T08:02:05;95543.47;;;21.23;100.00
11676;BME280;5894;42.768;23.404;2023-05-29T08:04:44;95548.94;;;21.34;97.95
11676;BME280;5894;42.768;23.404;2023-05-29T08:07:12;95548.66;;;21.49;97.41
11676;BME280;5894;42.768;23.404;2023-05-29T08:09:41;95557.97;;;21.63;94.80
11676;BME280;5894;42.768;23.404;2023-05-29T08:12:07;95556.88;;;21.71;92.11
11676;BME280;5894;42.768;23.404;2023-05-29T08:14:36;95550.00;;;21.73;93.20
11676;BME280;5894;42.768;23.404;2023-05-29T08:17:04;95549.72;;;21.85;93.67
11676;BME280;5894;42.768;23.404;2023-05-29T08:19:32;95547.00;;;21.82;91.32
11676;BME280;5894;42.768;23.404;2023-05-29T08:21:59;95543.88;;;21.73;88.67
11676;BME280;5894;42.768;23.404;2023-05-29T08:24:25;95549.94;;;21.63;91.04
11676;BME280;5894;42.768;23.404;2023-05-29T08:26:54;95549.97;;;21.66;88.64
11676;BME280;5894;42.768;23.404;2023-05-29T08:29:22;95548.22;;;21.88;88.35
11676;BME280;5894;42.768;23.404;2023-05-29T08:31:49;95551.75;;;22.03;84.69
11676;BME280;5894;42.768;23.404;2023-05-29T08:34:16;95552.63;;;22.17;83.71
11676;BME280;5894;42.768;23.404;2023-05-29T08:36:43;95545.03;;;22.33;83.46
11676;BME280;5894;42.768;23.404;2023-05-29T08:39:10;95548.94;;;22.50;82.23
11676;BME280;5894;42.768;23.404;2023-05-29T08:41:44;95486.59;;;22.09;81.37
11676;BME280;5894;42.768;23.404;2023-05-29T08:44:21;95545.84;;;22.45;81.31
11676;BME280;5894;42.768;23.404;2023-05-29T08:46:52;95533.13;;;22.31;84.98
11676;BME280;5894;42.768;23.404;2023-05-29T08:49:21;95525.03;;;22.20;84.42
11676;BME280;5894;42.768;23.404;2023-05-29T08:51:53;95530.78;;;22.19;84.93
11676;BME280;5894;42.768;23.404;2023-05-29T08:54:23;95537.31;;;22.21;87.36
11676;BME280;5894;42.768;23.404;2023-05-29T08:56:54;95527.75;;;22.31;89.45
11676;BME280;5894;42.768;23.404;2023-05-29T08:59:22;95526.94;;;22.23;91.39
11676;BME280;5894;42.768;23.404;2023-05-29T09:01:49;95519.31;;;22.29;90.65
11676;BME280;5894;42.768;23.404;2023-05-29T09:04:17;95521.63;;;22.34;90.67
11676;BME280;5894;42.768;23.404;2023-05-29T09:06:44;95522.38;;;22.31;85.08
11676;BME280;5894;42.768;23.404;2023-05-29T09:09:12;95513.53;;;22.27;89.30
11676;BME280;5894;42.768;23.404;2023-05-29T09:11:39;95510.50;;;22.32;92.31
11676;BME280;5894;42.768;23.404;2023-05-29T09:14:11;95514.72;;;22.37;86.44
11676;BME280;5894;42.768;23.404;2023-05-29T09:17:00;95509.38;;;22.44;89.66
11676;BME280;5894;42.768;23.404;2023-05-29T09:19:28;95503.22;;;22.36;88.23
11676;BME280;5894;42.768;23.404;2023-05-29T09:22:00;95497.84;;;22.36;91.20
11676;BME280;5894;42.768;23.404;2023-05-29T09:24:28;95442.09;;;22.08;87.75
11676;BME280;5894;42.768;23.404;2023-05-29T09:26:56;95496.75;;;22.55;85.55
11676;BME280;5894;42.768;23.404;2023-05-29T09:29:23;95453.69;;;22.33;85.71
11676;BME280;5894;42.768;23.404;2023-05-29T09:31:50;95488.72;;;22.65;88.29
11676;BME280;5894;42.768;23.404;2023-05-29T09:34:19;95487.19;;;22.68;85.60
11676;BME280;5894;42.768;23.404;2023-05-29T09:36:46;95483.38;;;22.73;86.18
11676;BME280;5894;42.768;23.404;2023-05-29T09:39:13;95476.47;;;22.75;87.61
11676;BME280;5894;42.768;23.404;2023-05-29T09:41:43;95473.03;;;22.78;89.00
11676;BME280;5894;42.768;23.404;2023-05-29T09:44:12;95464.94;;;22.71;87.68
11676;BME280;5894;42.768;23.404;2023-05-29T09:46:39;95469.53;;;22.74;83.59
11676;BME280;5894;42.768;23.404;2023-05-29T09:49:10;95466.06;;;22.66;84.74
11676;BME280;5894;42.768;23.404;2023-05-29T09:51:38;95474.13;;;22.63;80.40
11676;BME280;5894;42.768;23.404;2023-05-29T09:54:16;95463.38;;;22.63;82.53
11676;BME280;5894;42.768;23.404;2023-05-29T09:56:44;95436.44;;;22.45;84.23
11676;BME280;5894;42.768;23.404;2023-05-29T09:59:13;95458.75;;;22.63;86.91
11676;BME280;5894;42.768;23.404;2023-05-29T10:01:42;95455.31;;;22.66;84.48
11676;BME280;5894;42.768;23.404;2023-05-29T10:04:11;95456.47;;;22.69;84.79
11676;BME280;5894;42.768;23.404;2023-05-29T10:06:44;95438.78;;;22.57;82.83
11676;BME280;5894;42.768;23.404;2023-05-29T10:09:12;95438.41;;;22.62;80.86
11676;BME280;5894;42.768;23.404;2023-05-29T10:11:43;95455.75;;;22.86;83.77
11676;BME280;5894;42.768;23.404;2023-05-29T10:14:14;95455.75;;;22.90;84.00
11676;BME280;5894;42.768;23.404;2023-05-29T10:16:46;95464.97;;;22.78;82.04
11676;BME280;5894;42.768;23.404;2023-05-29T10:19:18;95409.56;;;22.45;80.81
11676;BME280;5894;42.768;23.404;2023-05-29T10:21:49;95466.09;;;22.74;81.21
11676;BME280;5894;42.768;23.404;2023-05-29T10:24:18;95449.16;;;22.66;80.49
11676;BME280;5894;42.768;23.404;2023-05-29T10:26:47;95444.16;;;22.64;84.30
11676;BME280;5894;42.768;23.404;2023-05-29T10:29:22;95396.13;;;22.34;84.43
11676;BME280;5894;42.768;23.404;2023-05-29T10:32:03;95449.25;;;22.84;89.23
11676;BME280;5894;42.768;23.404;2023-05-29T10:34:37;95436.94;;;22.79;78.64
11676;BME280;5894;42.768;23.404;2023-05-29T10:37:12;95438.09;;;22.82;83.73
11676;BME280;5894;42.768;23.404;2023-05-29T10:39:44;95446.16;;;22.92;81.20
11676;BME280;5894;42.768;23.404;2023-05-29T10:42:44;95432.69;;;22.85;81.96
11676;BME280;5894;42.768;23.404;2023-05-29T10:48:40;95438.50;;;22.94;78.96
11676;BME280;5894;42.768;23.404;2023-05-29T10:51:08;95381.22;;;22.62;74.99
11676;BME280;5894;42.768;23.404;2023-05-29T10:53:40;95425.81;;;22.91;79.59
11676;BME280;5894;42.768;23.404;2023-05-29T10:56:15;95422.34;;;22.94;77.10
11676;BME280;5894;42.768;23.404;2023-05-29T10:58:52;95420.41;;;22.98;78.73
11676;BME280;5894;42.768;23.404;2023-05-29T11:01:21;95410.44;;;23.06;78.84
11676;BME280;5894;42.768;23.404;2023-05-29T11:03:49;95413.13;;;23.10;80.39
11676;BME280;5894;42.768;23.404;2023-05-29T11:06:19;95398.53;;;23.00;75.13
11676;BME280;5894;42.768;23.404;2023-05-29T11:08:52;95370.84;;;22.96;78.63
11676;BME280;5894;42.768;23.404;2023-05-29T11:11:29;95397.75;;;23.21;76.49
11676;BME280;5894;42.768;23.404;2023-05-29T11:14:01;95399.66;;;23.27;78.52
11676;BME280;5894;42.768;23.404;2023-05-29T11:16:38;95406.59;;;23.35;81.64
11676;BME280;5894;42.768;23.404;2023-05-29T11:19:06;95402.72;;;23.43;79.50
11676;BME280;5894;42.768;23.404;2023-05-29T11:21:51;95383.50;;;23.38;81.56
11676;BME280;5894;42.768;23.404;2023-05-29T11:24:26;95394.25;;;23.41;74.47
11676;BME280;5894;42.768;23.404;2023-05-29T11:26:55;95406.91;;;23.48;72.77
11676;BME280;5894;42.768;23.404;2023-05-29T11:29:23;95392.72;;;23.40;77.38
11676;BME280;5894;42.768;23.404;2023-05-29T11:31:56;95405.03;;;23.52;74.90
11676;BME280;5894;42.768;23.404;2023-05-29T11:34:25;95399.66;;;23.52;76.89
11676;BME280;5894;42.768;23.404;2023-05-29T11:36:56;95398.88;;;23.45;76.65
11676;BME280;5894;42.768;23.404;2023-05-29T11:39:25;95399.63;;;23.59;76.37
11676;BME280;5894;42.768;23.404;2023-05-29T11:41:53;95397.31;;;23.65;73.42
11676;BME280;5894;42.768;23.404;2023-05-29T11:44:23;95398.09;;;23.58;71.35
11676;BME280;5894;42.768;23.404;2023-05-29T11:46:59;95399.25;;;23.61;76.36
11676;BME280;5894;42.768;23.404;2023-05-29T11:49:28;95395.41;;;23.51;76.88
11676;BME280;5894;42.768;23.404;2023-05-29T11:52:05;95411.56;;;23.44;77.34
11676;BME280;5894;42.768;23.404;2023-05-29T11:54:34;95398.88;;;23.34;80.15
11676;BME280;5894;42.768;23.404;2023-05-29T11:57:02;95389.28;;;23.26;79.54
11676;BME280;5894;42.768;23.404;2023-05-29T11:59:31;95409.25;;;23.32;81.60
11676;BME280;5894;42.768;23.404;2023-05-29T12:01:59;95415.78;;;23.27;84.28
11676;BME280;5894;42.768;23.404;2023-05-29T12:04:26;95410.44;;;23.24;85.82
11676;BME280;5894;42.768;23.404;2023-05-29T12:06:53;95411.59;;;23.09;88.62
11676;BME280;5894;42.768;23.404;2023-05-29T12:09:25;95406.59;;;22.96;90.87
11676;BME280;5894;42.768;23.404;2023-05-29T12:12:01;95392.38;;;22.96;93.97
11676;BME280;5894;42.768;23.404;2023-05-29T12:14:28;95398.13;;;22.98;90.38
11676;BME280;5894;42.768;23.404;2023-05-29T12:16:55;95394.31;;;22.88;96.27
11676;BME280;5894;42.768;23.404;2023-05-29T12:19:22;95397.72;;;22.71;100.00
11676;BME280;5894;42.768;23.404;2023-05-29T12:21:49;95402.28;;;22.42;100.00
11676;BME280;5894;42.768;23.404;2023-05-29T12:24:18;95393.41;;;22.27;100.00
11676;BME280;5894;42.768;23.404;2023-05-29T12:26:45;95360.63;;;21.83;100.00
11676;BME280;5894;42.768;23.404;2023-05-29T12:29:15;95397.84;;;21.84;100.00
11676;BME280;5894;42.768;23.404;2023-05-29T12:31:42;95404.63;;;21.60;100.00
11676;BME280;5894;42.768;23.404;2023-05-29T12:34:10;95393.81;;;21.50;100.00
11676;BME280;5894;42.768;23.404;2023-05-29T12:36:40;95402.66;;;21.50;100.00
11676;BME280;5894;42.768;23.404;2023-05-29T12:39:07;95401.09;;;21.49;100.00
11676;BME280;5894;42.768;23.404;2023-05-29T12:41:36;95409.16;;;21.49;100.00
11676;BME280;5894;42.768;23.404;2023-05-29T12:44:06;95415.22;;;21.36;100.00
11676;BME280;5894;42.768;23.404;2023-05-29T12:46:39;95331.75;;;20.86;100.00
11676;BME280;5894;42.768;23.404;2023-05-29T12:49:12;95407.16;;;21.36;100.00
11676;BME280;5894;42.768;23.404;2023-05-29T12:51:41;95375.94;;;21.10;100.00
11676;BME280;5894;42.768;23.404;2023-05-29T12:54:09;95407.16;;;21.36;100.00
11676;BME280;5894;42.768;23.404;2023-05-29T12:56:37;95409.84;;;21.39;100.00
11676;BME280;5894;42.768;23.404;2023-05-29T12:59:05;95404.97;;;21.48;100.00
11676;BME280;5894;42.768;23.404;2023-05-29T13:01:33;95410.00;;;21.57;100.00
11676;BME280;5894;42.768;23.404;2023-05-29T13:04:01;95405.03;;;21.66;100.00
11676;BME280;5894;42.768;23.404;2023-05-29T13:06:29;95402.00;;;21.75;100.00